sensor_id;sensor_type;location;lat;lon;timestamp;temperature;humidity
19214;DHT22;9741;51.020;5.304;2023-08-24T00:01:47;20.30;58.80
19214;DHT22;9741;51.020;5.304;2023-08-24T00:04:19;20.30;58.80
19214;DHT22;9741;51.020;5.304;2023-08-24T00:06:48;20.30;58.90
19214;DHT22;9741;51.020;5.304;2023-08-24T00:09:23;20.30;58.90
19214;DHT22;9741;51.020;5.304;2023-08-24T00:11:53;20.40;59.00
19214;DHT22;9741;51.020;5.304;2023-08-24T00:14:35;20.30;58.90
19214;DHT22;9741;51.020;5.304;2023-08-24T00:17:04;20.40;58.90
19214;DHT22;9741;51.020;5.304;2023-08-24T00:19:36;20.30;58.90
19214;DHT22;9741;51.020;5.304;2023-08-24T00:22:06;20.30;59.00
19214;DHT22;9741;51.020;5.304;2023-08-24T00:24:52;20.30;59.00
19214;DHT22;9741;51.020;5.304;2023-08-24T00:27:23;20.30;59.10
19214;DHT22;9741;51.020;5.304;2023-08-24T00:29:54;20.30;59.10
19214;DHT22;9741;51.020;5.304;2023-08-24T00:32:26;20.30;59.10
19214;DHT22;9741;51.020;5.304;2023-08-24T00:34:55;20.40;59.20
19214;DHT22;9741;51.020;5.304;2023-08-24T00:37:23;20.40;59.20
19214;DHT22;9741;51.020;5.304;2023-08-24T00:39:56;20.30;59.10
19214;DHT22;9741;51.020;5.304;2023-08-24T00:42:26;20.30;59.10
19214;DHT22;9741;51.020;5.304;2023-08-24T00:44:57;20.30;59.20
19214;DHT22;9741;51.020;5.304;2023-08-24T00:47:26;20.30;59.20
19214;DHT22;9741;51.020;5.304;2023-08-24T00:50:08;20.30;59.20
19214;DHT22;9741;51.020;5.304;2023-08-24T00:52:49;20.30;59.30
19214;DHT22;9741;51.020;5.304;2023-08-24T00:55:19;20.30;59.30
19214;DHT22;9741;51.020;5.304;2023-08-24T00:57:50;20.20;59.30
19214;DHT22;9741;51.020;5.304;2023-08-24T01:00:28;20.20;59.30
19214;DHT22;9741;51.020;5.304;2023-08-24T01:03:05;20.20;59.40
19214;DHT22;9741;51.020;5.304;2023-08-24T01:05:33;20.20;59.40
19214;DHT22;9741;51.020;5.304;2023-08-24T01:08:08;20.20;59.40
19214;DHT22;9741;51.020;5.304;2023-08-24T01:10:47;20.30;59.50
19214;DHT22;9741;51.020;5.304;2023-08-24T01:13:23;20.30;59.50
19214;DHT22;9741;51.020;5.304;2023-08-24T01:16:04;20.30;59.50
19214;DHT22;9741;51.020;5.304;2023-08-24T01:18:38;20.30;59.50
19214;DHT22;9741;51.020;5.304;2023-08-24T01:21:10;20.30;59.50
19214;DHT22;9741;51.020;5.304;2023-08-24T01:23:59;20.30;59.50
19214;DHT22;9741;51.020;5.304;2023-08-24T01:26:39;20.40;59.60
19214;DHT22;9741;51.020;5.304;2023-08-24T01:29:10;20.40;59.60
19214;DHT22;9741;51.020;5.304;2023-08-24T01:31:40;20.30;59.50
19214;DHT22;9741;51.020;5.304;2023-08-24T01:34:11;20.40;60.10
19214;DHT22;9741;51.020;5.304;2023-08-24T01:36:40;20.40;59.60
19214;DHT22;9741;51.020;5.304;2023-08-24T01:39:14;20.40;59.60
19214;DHT22;9741;51.020;5.304;2023-08-24T01:41:54;20.40;59.60
19214;DHT22;9741;51.020;5.304;2023-08-24T01:44:30;20.40;59.60
19214;DHT22;9741;51.020;5.304;2023-08-24T01:47:08;20.40;59.50
19214;DHT22;9741;51.020;5.304;2023-08-24T01:49:39;20.30;59.50
19214;DHT22;9741;51.020;5.304;2023-08-24T01:52:09;20.30;59.60
19214;DHT22;9741;51.020;5.304;2023-08-24T01:54:38;20.30;59.60
19214;DHT22;9741;51.020;5.304;2023-08-24T01:57:11;20.30;59.60
19214;DHT22;9741;51.020;5.304;2023-08-24T01:59:39;20.30;59.70
19214;DHT22;9741;51.020;5.304;2023-08-24T02:02:16;20.30;59.70
19214;DHT22;9741;51.020;5.304;2023-08-24T02:04:52;20.30;59.70
19214;DHT22;9741;51.020;5.304;2023-08-24T02:07:21;20.30;59.70
19214;DHT22;9741;51.020;5.304;2023-08-24T02:09:52;20.30;59.70
19214;DHT22;9741;51.020;5.304;2023-08-24T02:12:24;20.40;59.70
19214;DHT22;9741;51.020;5.304;2023-08-24T02:14:52;20.50;59.70
19214;DHT22;9741;51.020;5.304;2023-08-24T02:17:28;20.50;59.60
19214;DHT22;9741;51.020;5.304;2023-08-24T02:20:11;20.50;59.50
19214;DHT22;9741;51.020;5.304;2023-08-24T02:22:42;20.50;59.50
19214;DHT22;9741;51.020;5.304;2023-08-24T02:25:14;20.50;59.50
19214;DHT22;9741;51.020;5.304;2023-08-24T02:27:49;20.50;59.50
19214;DHT22;9741;51.020;5.304;2023-08-24T02:30:20;20.50;59.50
19214;DHT22;9741;51.020;5.304;2023-08-24T02:32:52;20.50;59.60
19214;DHT22;9741;51.020;5.304;2023-08-24T02:35:28;20.60;59.70
19214;DHT22;9741;51.020;5.304;2023-08-24T02:38:03;20.60;59.80
19214;DHT22;9741;51.020;5.304;2023-08-24T02:40:32;20.60;59.80
19214;DHT22;9741;51.020;5.304;2023-08-24T02:43:04;20.60;59.90
19214;DHT22;9741;51.020;5.304;2023-08-24T02:45:34;20.70;60.00
19214;DHT22;9741;51.020;5.304;2023-08-24T02:48:03;20.70;60.00
19214;DHT22;9741;51.020;5.304;2023-08-24T02:50:31;20.70;60.00
19214;DHT22;9741;51.020;5.304;2023-08-24T02:53:02;20.70;59.90
19214;DHT22;9741;51.020;5.304;2023-08-24T02:55:39;20.80;60.10
19214;DHT22;9741;51.020;5.304;2023-08-24T02:58:13;20.80;60.70
19214;DHT22;9741;51.020;5.304;2023-08-24T03:00:45;20.70;60.10
19214;DHT22;9741;51.020;5.304;2023-08-24T03:03:14;20.70;60.20
19214;DHT22;9741;51.020;5.304;2023-08-24T03:05:58;20.60;60.20
19214;DHT22;9741;51.020;5.304;2023-08-24T03:08:32;20.50;60.30
19214;DHT22;9741;51.020;5.304;2023-08-24T03:11:02;20.30;60.30
19214;DHT22;9741;51.020;5.304;2023-08-24T03:13:39;20.10;60.60
19214;DHT22;9741;51.020;5.304;2023-08-24T03:16:12;19.90;60.80
19214;DHT22;9741;51.020;5.304;2023-08-24T03:18:45;19.80;61.10
19214;DHT22;9741;51.020;5.304;2023-08-24T03:21:20;19.70;61.30
19214;DHT22;9741;51.020;5.304;2023-08-24T03:23:50;19.60;61.50
19214;DHT22;9741;51.020;5.304;2023-08-24T03:26:22;19.50;61.70
19214;DHT22;9741;51.020;5.304;2023-08-24T03:29:03;19.50;61.90
19214;DHT22;9741;51.020;5.304;2023-08-24T03:31:32;19.40;62.10
19214;DHT22;9741;51.020;5.304;2023-08-24T03:34:06;19.40;62.30
19214;DHT22;9741;51.020;5.304;2023-08-24T03:36:39;19.40;62.40
19214;DHT22;9741;51.020;5.304;2023-08-24T03:39:07;19.40;62.60
19214;DHT22;9741;51.020;5.304;2023-08-24T03:41:36;19.40;62.70
19214;DHT22;9741;51.020;5.304;2023-08-24T03:44:20;19.40;62.80
19214;DHT22;9741;51.020;5.304;2023-08-24T03:46:51;19.40;63.00
19214;DHT22;9741;51.020;5.304;2023-08-24T03:49:23;19.50;63.10
19214;DHT22;9741;51.020;5.304;2023-08-24T03:51:53;19.50;63.10
19214;DHT22;9741;51.020;5.304;2023-08-24T03:54:36;19.60;63.20
19214;DHT22;9741;51.020;5.304;2023-08-24T03:57:06;19.60;63.20
19214;DHT22;9741;51.020;5.304;2023-08-24T03:59:41;19.60;63.30
19214;DHT22;9741;51.020;5.304;2023-08-24T04:02:18;19.60;63.40
19214;DHT22;9741;51.020;5.304;2023-08-24T04:04:50;19.60;63.50
19214;DHT22;9741;51.020;5.304;2023-08-24T04:07:22;19.60;63.60
19214;DHT22;9741;51.020;5.304;2023-08-24T04:09:53;19.50;63.60
19214;DHT22;9741;51.020;5.304;2023-08-24T04:12:21;19.50;63.60
19214;DHT22;9741;51.020;5.304;2023-08-24T04:14:55;19.50;63.70
19214;DHT22;9741;51.020;5.304;2023-08-24T04:17:25;19.40;63.70
19214;DHT22;9741;51.020;5.304;2023-08-24T04:19:56;19.30;63.90
19214;DHT22;9741;51.020;5.304;2023-08-24T04:22:25;19.30;64.00
19214;DHT22;9741;51.020;5.304;2023-08-24T04:24:59;19.30;64.10
19214;DHT22;9741;51.020;5.304;2023-08-24T04:27:31;19.20;64.20
19214;DHT22;9741;51.020;5.304;2023-08-24T04:30:18;19.20;64.30
19214;DHT22;9741;51.020;5.304;2023-08-24T04:32:48;19.20;64.40
19214;DHT22;9741;51.020;5.304;2023-08-24T04:35:18;19.10;64.50
19214;DHT22;9741;51.020;5.304;2023-08-24T04:37:50;19.10;64.60
19214;DHT22;9741;51.020;5.304;2023-08-24T04:40:25;19.10;64.70
19214;DHT22;9741;51.020;5.304;2023-08-24T04:43:01;19.10;64.80
19214;DHT22;9741;51.020;5.304;2023-08-24T04:45:31;19.10;64.90
19214;DHT22;9741;51.020;5.304;2023-08-24T04:48:00;19.20;65.10
19214;DHT22;9741;51.020;5.304;2023-08-24T04:50:31;19.10;65.00
19214;DHT22;9741;51.020;5.304;2023-08-24T04:53:02;19.20;65.10
19214;DHT22;9741;51.020;5.304;2023-08-24T04:55:34;19.20;65.20
19214;DHT22;9741;51.020;5.304;2023-08-24T04:58:04;19.20;65.30
19214;DHT22;9741;51.020;5.304;2023-08-24T05:00:41;19.20;65.30
19214;DHT22;9741;51.020;5.304;2023-08-24T05:03:09;19.20;65.40
19214;DHT22;9741;51.020;5.304;2023-08-24T05:05:41;19.20;65.40
19214;DHT22;9741;51.020;5.304;2023-08-24T05:08:15;19.20;65.50
19214;DHT22;9741;51.020;5.304;2023-08-24T05:10:44;19.30;65.60
19214;DHT22;9741;51.020;5.304;2023-08-24T05:13:15;19.30;65.60
19214;DHT22;9741;51.020;5.304;2023-08-24T05:15:48;19.30;65.60
19214;DHT22;9741;51.020;5.304;2023-08-24T05:18:18;19.30;65.70
19214;DHT22;9741;51.020;5.304;2023-08-24T05:20:47;19.40;65.80
19214;DHT22;9741;51.020;5.304;2023-08-24T05:23:30;19.40;65.80
19214;DHT22;9741;51.020;5.304;2023-08-24T05:26:07;19.50;65.90
19214;DHT22;9741;51.020;5.304;2023-08-24T05:28:50;19.50;66.00
19214;DHT22;9741;51.020;5.304;2023-08-24T05:31:28;19.60;66.00
19214;DHT22;9741;51.020;5.304;2023-08-24T05:34:00;19.70;66.10
19214;DHT22;9741;51.020;5.304;2023-08-24T05:36:29;19.80;66.20
19214;DHT22;9741;51.020;5.304;2023-08-24T05:39:00;19.90;66.30
19214;DHT22;9741;51.020;5.304;2023-08-24T05:41:30;19.90;66.20
19214;DHT22;9741;51.020;5.304;2023-08-24T05:44:05;20.10;66.30
19214;DHT22;9741;51.020;5.304;2023-08-24T05:46:41;20.20;66.30
19214;DHT22;9741;51.020;5.304;2023-08-24T05:49:09;20.20;66.20
19214;DHT22;9741;51.020;5.304;2023-08-24T05:51:38;20.30;66.30
19214;DHT22;9741;51.020;5.304;2023-08-24T05:54:08;20.30;66.10
19214;DHT22;9741;51.020;5.304;2023-08-24T05:56:37;20.40;66.10
19214;DHT22;9741;51.020;5.304;2023-08-24T05:59:14;20.40;66.10
19214;DHT22;9741;51.020;5.304;2023-08-24T06:01:48;20.50;66.20
19214;DHT22;9741;51.020;5.304;2023-08-24T06:04:20;20.50;66.20
19214;DHT22;9741;51.020;5.304;2023-08-24T06:06:48;20.60;66.30
19214;DHT22;9741;51.020;5.304;2023-08-24T06:09:20;20.60;66.30
19214;DHT22;9741;51.020;5.304;2023-08-24T06:11:48;20.70;66.40
19214;DHT22;9741;51.020;5.304;2023-08-24T06:14:19;20.70;66.40
19214;DHT22;9741;51.020;5.304;2023-08-24T06:16:52;20.80;66.40
19214;DHT22;9741;51.020;5.304;2023-08-24T06:19:25;20.80;66.90
19214;DHT22;9741;51.020;5.304;2023-08-24T06:21:52;20.90;66.40
19214;DHT22;9741;51.020;5.304;2023-08-24T06:24:29;20.90;66.40
19214;DHT22;9741;51.020;5.304;2023-08-24T06:26:57;21.00;66.40
19214;DHT22;9741;51.020;5.304;2023-08-24T06:29:31;21.10;66.50
19214;DHT22;9741;51.020;5.304;2023-08-24T06:32:03;21.20;66.50
19214;DHT22;9741;51.020;5.304;2023-08-24T06:34:34;21.30;66.40
19214;DHT22;9741;51.020;5.304;2023-08-24T06:37:11;21.40;66.40
19214;DHT22;9741;51.020;5.304;2023-08-24T06:39:42;21.50;66.30
19214;DHT22;9741;51.020;5.304;2023-08-24T06:42:19;21.70;66.30
19214;DHT22;9741;51.020;5.304;2023-08-24T06:44:48;21.80;66.20
19214;DHT22;9741;51.020;5.304;2023-08-24T06:47:36;22.00;66.20
19214;DHT22;9741;51.020;5.304;2023-08-24T06:50:04;22.10;66.00
19214;DHT22;9741;51.020;5.304;2023-08-24T06:52:39;22.30;66.00
19214;DHT22;9741;51.020;5.304;2023-08-24T06:55:08;22.50;66.00
19214;DHT22;9741;51.020;5.304;2023-08-24T06:57:36;22.60;65.80
19214;DHT22;9741;51.020;5.304;2023-08-24T07:00:03;22.90;65.80
19214;DHT22;9741;51.020;5.304;2023-08-24T07:02:36;23.10;65.90
19214;DHT22;9741;51.020;5.304;2023-08-24T07:05:03;23.80;66.60
19214;DHT22;9741;51.020;5.304;2023-08-24T07:07:34;24.80;66.30
19214;DHT22;9741;51.020;5.304;2023-08-24T07:10:01;25.90;64.90
19214;DHT22;9741;51.020;5.304;2023-08-24T07:12:30;26.80;63.30
19214;DHT22;9741;51.020;5.304;2023-08-24T07:14:58;27.50;61.90
19214;DHT22;9741;51.020;5.304;2023-08-24T07:17:26;28.30;60.60
19214;DHT22;9741;51.020;5.304;2023-08-24T07:19:55;28.90;59.40
19214;DHT22;9741;51.020;5.304;2023-08-24T07:22:25;29.60;58.30
19214;DHT22;9741;51.020;5.304;2023-08-24T07:24:58;30.40;57.20
19214;DHT22;9741;51.020;5.304;2023-08-24T07:27:33;31.10;55.60
19214;DHT22;9741;51.020;5.304;2023-08-24T07:30:12;31.30;54.20
19214;DHT22;9741;51.020;5.304;2023-08-24T07:32:46;31.60;53.40
19214;DHT22;9741;51.020;5.304;2023-08-24T07:35:23;31.80;52.80
19214;DHT22;9741;51.020;5.304;2023-08-24T07:37:55;32.10;52.20
19214;DHT22;9741;51.020;5.304;2023-08-24T07:40:27;32.60;51.50
19214;DHT22;9741;51.020;5.304;2023-08-24T07:42:59;33.00;50.50
19214;DHT22;9741;51.020;5.304;2023-08-24T07:45:28;33.40;49.70
19214;DHT22;9741;51.020;5.304;2023-08-24T07:48:01;33.60;49.00
19214;DHT22;9741;51.020;5.304;2023-08-24T07:50:37;33.80;48.40
19214;DHT22;9741;51.020;5.304;2023-08-24T07:53:08;34.00;47.90
19214;DHT22;9741;51.020;5.304;2023-08-24T07:55:38;34.30;47.10
19214;DHT22;9741;51.020;5.304;2023-08-24T07:58:09;34.50;46.50
19214;DHT22;9741;51.020;5.304;2023-08-24T08:00:39;34.50;46.10
19214;DHT22;9741;51.020;5.304;2023-08-24T08:03:12;34.50;45.70
19214;DHT22;9741;51.020;5.304;2023-08-24T08:06:00;34.40;45.50
19214;DHT22;9741;51.020;5.304;2023-08-24T08:08:28;34.00;45.30
19214;DHT22;9741;51.020;5.304;2023-08-24T08:11:06;33.80;45.40
19214;DHT22;9741;51.020;5.304;2023-08-24T08:13:35;33.60;45.50
19214;DHT22;9741;51.020;5.304;2023-08-24T08:16:08;33.50;45.60
19214;DHT22;9741;51.020;5.304;2023-08-24T08:18:43;33.40;45.40
19214;DHT22;9741;51.020;5.304;2023-08-24T08:21:21;33.20;45.50
19214;DHT22;9741;51.020;5.304;2023-08-24T08:23:53;33.10;45.40
19214;DHT22;9741;51.020;5.304;2023-08-24T08:26:23;32.90;46.00
19214;DHT22;9741;51.020;5.304;2023-08-24T08:28:53;32.80;45.30
19214;DHT22;9741;51.020;5.304;2023-08-24T08:31:24;32.70;45.20
19214;DHT22;9741;51.020;5.304;2023-08-24T08:33:51;32.40;45.20
19214;DHT22;9741;51.020;5.304;2023-08-24T08:36:25;32.20;45.60
19214;DHT22;9741;51.020;5.304;2023-08-24T08:38:53;32.00;45.70
19214;DHT22;9741;51.020;5.304;2023-08-24T08:41:31;31.80;45.70
19214;DHT22;9741;51.020;5.304;2023-08-24T08:44:07;31.70;46.00
19214;DHT22;9741;51.020;5.304;2023-08-24T08:46:36;31.60;46.60
19214;DHT22;9741;51.020;5.304;2023-08-24T08:49:07;31.50;46.10
19214;DHT22;9741;51.020;5.304;2023-08-24T08:51:41;31.40;46.20
19214;DHT22;9741;51.020;5.304;2023-08-24T08:54:13;31.30;46.30
19214;DHT22;9741;51.020;5.304;2023-08-24T08:56:51;31.20;46.50
19214;DHT22;9741;51.020;5.304;2023-08-24T08:59:35;31.10;46.50
19214;DHT22;9741;51.020;5.304;2023-08-24T09:02:03;31.10;46.60
19214;DHT22;9741;51.020;5.304;2023-08-24T09:04:33;31.10;46.90
19214;DHT22;9741;51.020;5.304;2023-08-24T09:07:06;31.10;46.90
19214;DHT22;9741;51.020;5.304;2023-08-24T09:09:39;31.10;47.00
19214;DHT22;9741;51.020;5.304;2023-08-24T09:12:09;31.20;46.80
19214;DHT22;9741;51.020;5.304;2023-08-24T09:14:46;31.20;46.80
19214;DHT22;9741;51.020;5.304;2023-08-24T09:17:22;31.20;46.80
19214;DHT22;9741;51.020;5.304;2023-08-24T09:19:55;31.30;46.90
19214;DHT22;9741;51.020;5.304;2023-08-24T09:22:36;31.30;47.00
19214;DHT22;9741;51.020;5.304;2023-08-24T09:25:13;31.40;46.80
19214;DHT22;9741;51.020;5.304;2023-08-24T09:27:42;31.60;46.90
19214;DHT22;9741;51.020;5.304;2023-08-24T09:30:12;31.70;46.70
19214;DHT22;9741;51.020;5.304;2023-08-24T09:32:42;31.70;46.60
19214;DHT22;9741;51.020;5.304;2023-08-24T09:35:11;31.80;46.60
19214;DHT22;9741;51.020;5.304;2023-08-24T09:37:45;31.70;46.60
19214;DHT22;9741;51.020;5.304;2023-08-24T09:40:15;31.60;46.80
19214;DHT22;9741;51.020;5.304;2023-08-24T09:42:46;31.60;46.90
19214;DHT22;9741;51.020;5.304;2023-08-24T09:45:15;31.60;47.00
19214;DHT22;9741;51.020;5.304;2023-08-24T09:47:52;31.60;47.00
19214;DHT22;9741;51.020;5.304;2023-08-24T09:50:19;31.60;46.90
19214;DHT22;9741;51.020;5.304;2023-08-24T09:52:53;31.50;46.70
19214;DHT22;9741;51.020;5.304;2023-08-24T09:55:37;31.40;46.70
19214;DHT22;9741;51.020;5.304;2023-08-24T09:58:19;31.20;46.90
19214;DHT22;9741;51.020;5.304;2023-08-24T10:00:51;30.90;47.10
19214;DHT22;9741;51.020;5.304;2023-08-24T10:03:32;30.80;47.40
19214;DHT22;9741;51.020;5.304;2023-08-24T10:06:04;30.70;47.50
19214;DHT22;9741;51.020;5.304;2023-08-24T10:08:43;30.60;47.60
19214;DHT22;9741;51.020;5.304;2023-08-24T10:11:19;30.50;47.70
19214;DHT22;9741;51.020;5.304;2023-08-24T10:13:57;30.40;47.70
19214;DHT22;9741;51.020;5.304;2023-08-24T10:16:30;30.30;47.90
19214;DHT22;9741;51.020;5.304;2023-08-24T10:19:01;30.20;47.90
19214;DHT22;9741;51.020;5.304;2023-08-24T10:21:33;30.00;48.20
19214;DHT22;9741;51.020;5.304;2023-08-24T10:24:08;29.70;48.40
19214;DHT22;9741;51.020;5.304;2023-08-24T10:26:41;29.40;48.70
19214;DHT22;9741;51.020;5.304;2023-08-24T10:29:18;29.10;49.10
19214;DHT22;9741;51.020;5.304;2023-08-24T10:31:48;28.80;49.50
19214;DHT22;9741;51.020;5.304;2023-08-24T10:34:25;28.50;49.80
19214;DHT22;9741;51.020;5.304;2023-08-24T10:36:56;28.30;50.20
19214;DHT22;9741;51.020;5.304;2023-08-24T10:39:35;28.10;50.60
19214;DHT22;9741;51.020;5.304;2023-08-24T10:42:12;27.90;51.60
19214;DHT22;9741;51.020;5.304;2023-08-24T10:44:47;27.70;51.30
19214;DHT22;9741;51.020;5.304;2023-08-24T10:47:23;27.50;51.60
19214;DHT22;9741;51.020;5.304;2023-08-24T10:50:01;27.30;51.90
19214;DHT22;9741;51.020;5.304;2023-08-24T10:52:32;27.10;52.10
19214;DHT22;9741;51.020;5.304;2023-08-24T10:55:21;26.90;52.50
19214;DHT22;9741;51.020;5.304;2023-08-24T10:57:56;26.80;53.00
19214;DHT22;9741;51.020;5.304;2023-08-24T11:00:28;26.60;53.50
19214;DHT22;9741;51.020;5.304;2023-08-24T11:02:59;26.40;53.80
19214;DHT22;9741;51.020;5.304;2023-08-24T11:05:29;26.30;54.30
19214;DHT22;9741;51.020;5.304;2023-08-24T11:08:04;26.10;54.90
19214;DHT22;9741;51.020;5.304;2023-08-24T11:10:49;25.80;55.40
19214;DHT22;9741;51.020;5.304;2023-08-24T11:13:22;25.60;56.00
19214;DHT22;9741;51.020;5.304;2023-08-24T11:15:51;25.40;56.50
19214;DHT22;9741;51.020;5.304;2023-08-24T11:18:25;25.20;57.20
19214;DHT22;9741;51.020;5.304;2023-08-24T11:21:01;25.00;57.80
19214;DHT22;9741;51.020;5.304;2023-08-24T11:23:34;24.90;58.40
19214;DHT22;9741;51.020;5.304;2023-08-24T11:26:06;24.80;58.90
19214;DHT22;9741;51.020;5.304;2023-08-24T11:28:40;24.60;59.10
19214;DHT22;9741;51.020;5.304;2023-08-24T11:31:14;24.50;59.60
19214;DHT22;9741;51.020;5.304;2023-08-24T11:33:43;24.50;60.10
19214;DHT22;9741;51.020;5.304;2023-08-24T11:36:11;24.60;60.50
19214;DHT22;9741;51.020;5.304;2023-08-24T11:38:41;24.60;60.70
19214;DHT22;9741;51.020;5.304;2023-08-24T11:41:20;24.80;61.10
19214;DHT22;9741;51.020;5.304;2023-08-24T11:43:59;25.00;61.30
19214;DHT22;9741;51.020;5.304;2023-08-24T11:46:30;25.20;61.20
19214;DHT22;9741;51.020;5.304;2023-08-24T11:49:00;25.40;61.20
19214;DHT22;9741;51.020;5.304;2023-08-24T11:51:29;25.60;61.20
19214;DHT22;9741;51.020;5.304;2023-08-24T11:54:02;25.80;61.10
19214;DHT22;9741;51.020;5.304;2023-08-24T11:56:57;25.90;61.00
19214;DHT22;9741;51.020;5.304;2023-08-24T11:59:29;25.90;60.90
19214;DHT22;9741;51.020;5.304;2023-08-24T12:02:00;25.90;61.00
19214;DHT22;9741;51.020;5.304;2023-08-24T12:04:41;26.10;61.10
19214;DHT22;9741;51.020;5.304;2023-08-24T12:07:14;26.30;61.10
19214;DHT22;9741;51.020;5.304;2023-08-24T12:09:46;26.40;60.90
19214;DHT22;9741;51.020;5.304;2023-08-24T12:12:23;26.50;60.80
19214;DHT22;9741;51.020;5.304;2023-08-24T12:14:57;26.70;60.80
19214;DHT22;9741;51.020;5.304;2023-08-24T12:17:27;26.90;60.60
19214;DHT22;9741;51.020;5.304;2023-08-24T12:19:59;27.00;60.40
19214;DHT22;9741;51.020;5.304;2023-08-24T12:22:32;27.10;60.40
19214;DHT22;9741;51.020;5.304;2023-08-24T12:25:02;27.10;60.50
19214;DHT22;9741;51.020;5.304;2023-08-24T12:27:34;27.20;60.50
19214;DHT22;9741;51.020;5.304;2023-08-24T12:30:10;27.20;60.20
19214;DHT22;9741;51.020;5.304;2023-08-24T12:32:48;27.30;60.20
19214;DHT22;9741;51.020;5.304;2023-08-24T12:35:25;27.20;60.10
19214;DHT22;9741;51.020;5.304;2023-08-24T12:37:53;27.20;60.20
19214;DHT22;9741;51.020;5.304;2023-08-24T12:40:30;27.20;60.20
19214;DHT22;9741;51.020;5.304;2023-08-24T12:43:05;27.20;60.40
19214;DHT22;9741;51.020;5.304;2023-08-24T12:45:38;27.20;60.60
19214;DHT22;9741;51.020;5.304;2023-08-24T12:48:08;27.20;60.60
19214;DHT22;9741;51.020;5.304;2023-08-24T12:50:39;27.10;60.70
19214;DHT22;9741;51.020;5.304;2023-08-24T12:53:12;27.10;60.70
19214;DHT22;9741;51.020;5.304;2023-08-24T12:55:40;27.00;60.80
19214;DHT22;9741;51.020;5.304;2023-08-24T12:58:15;26.90;60.80
19214;DHT22;9741;51.020;5.304;2023-08-24T13:00:48;26.80;61.00
19214;DHT22;9741;51.020;5.304;2023-08-24T13:03:24;26.70;61.20
19214;DHT22;9741;51.020;5.304;2023-08-24T13:05:55;26.50;61.40
19214;DHT22;9741;51.020;5.304;2023-08-24T13:08:31;26.30;61.70
19214;DHT22;9741;51.020;5.304;2023-08-24T13:11:03;26.10;61.80
19214;DHT22;9741;51.020;5.304;2023-08-24T13:13:37;26.00;62.20
19214;DHT22;9741;51.020;5.304;2023-08-24T13:16:06;25.80;62.40
19214;DHT22;9741;51.020;5.304;2023-08-24T13:18:36;25.60;62.50
19214;DHT22;9741;51.020;5.304;2023-08-24T13:21:06;25.50;62.80
19214;DHT22;9741;51.020;5.304;2023-08-24T13:23:34;25.30;63.00
19214;DHT22;9741;51.020;5.304;2023-08-24T13:26:17;25.20;63.20
19214;DHT22;9741;51.020;5.304;2023-08-24T13:28:51;25.00;63.40
19214;DHT22;9741;51.020;5.304;2023-08-24T13:31:23;24.90;63.70
19214;DHT22;9741;51.020;5.304;2023-08-24T13:33:52;24.80;63.90
19214;DHT22;9741;51.020;5.304;2023-08-24T13:36:21;24.60;64.10
19214;DHT22;9741;51.020;5.304;2023-08-24T13:38:49;24.50;64.20
19214;DHT22;9741;51.020;5.304;2023-08-24T13:41:20;24.30;64.40
19214;DHT22;9741;51.020;5.304;2023-08-24T13:43:54;24.20;64.70
19214;DHT22;9741;51.020;5.304;2023-08-24T13:46:26;24.10;64.90
19214;DHT22;9741;51.020;5.304;2023-08-24T13:49:04;24.00;65.10
19214;DHT22;9741;51.020;5.304;2023-08-24T13:51:41;23.80;65.20
19214;DHT22;9741;51.020;5.304;2023-08-24T13:54:13;23.70;65.50
19214;DHT22;9741;51.020;5.304;2023-08-24T13:56:43;23.60;65.60
19214;DHT22;9741;51.020;5.304;2023-08-24T13:59:15;23.50;65.80
19214;DHT22;9741;51.020;5.304;2023-08-24T14:01:53;23.40;65.90
19214;DHT22;9741;51.020;5.304;2023-08-24T14:04:24;23.30;66.00
19214;DHT22;9741;51.020;5.304;2023-08-24T14:06:54;23.20;66.10
19214;DHT22;9741;51.020;5.304;2023-08-24T14:09:23;23.10;66.20
19214;DHT22;9741;51.020;5.304;2023-08-24T14:11:51;23.10;66.30
19214;DHT22;9741;51.020;5.304;2023-08-24T14:14:31;23.00;66.30
19214;DHT22;9741;51.020;5.304;2023-08-24T14:17:01;23.00;66.40
19214;DHT22;9741;51.020;5.304;2023-08-24T14:19:44;22.90;66.40
19214;DHT22;9741;51.020;5.304;2023-08-24T14:22:15;22.80;66.40
19214;DHT22;9741;51.020;5.304;2023-08-24T14:24:45;22.80;66.50
19214;DHT22;9741;51.020;5.304;2023-08-24T14:27:21;22.80;66.60
19214;DHT22;9741;51.020;5.304;2023-08-24T14:29:56;22.70;66.60
19214;DHT22;9741;51.020;5.304;2023-08-24T14:32:26;22.70;66.70
19214;DHT22;9741;51.020;5.304;2023-08-24T14:34:56;22.70;66.80
19214;DHT22;9741;51.020;5.304;2023-08-24T14:37:27;22.70;66.80
19214;DHT22;9741;51.020;5.304;2023-08-24T14:40:07;22.70;66.90
19214;DHT22;9741;51.020;5.304;2023-08-24T14:42:42;22.70;66.90
19214;DHT22;9741;51.020;5.304;2023-08-24T14:45:17;22.70;66.90
19214;DHT22;9741;51.020;5.304;2023-08-24T14:47:47;22.80;67.00
19214;DHT22;9741;51.020;5.304;2023-08-24T14:50:15;22.80;67.00
19214;DHT22;9741;51.020;5.304;2023-08-24T14:52:46;22.80;67.00
19214;DHT22;9741;51.020;5.304;2023-08-24T14:55:22;22.80;67.00
19214;DHT22;9741;51.020;5.304;2023-08-24T14:57:55;22.80;67.00
19214;DHT22;9741;51.020;5.304;2023-08-24T15:00:30;22.80;67.10
19214;DHT22;9741;51.020;5.304;2023-08-24T15:03:04;22.80;67.10
19214;DHT22;9741;51.020;5.304;2023-08-24T15:05:41;22.80;67.10
19214;DHT22;9741;51.020;5.304;2023-08-24T15:08:12;22.80;67.10
19214;DHT22;9741;51.020;5.304;2023-08-24T15:10:43;22.80;67.10
19214;DHT22;9741;51.020;5.304;2023-08-24T15:13:20;22.80;67.10
19214;DHT22;9741;51.020;5.304;2023-08-24T15:15:52;22.90;67.20
19214;DHT22;9741;51.020;5.304;2023-08-24T15:18:25;23.00;67.40
19214;DHT22;9741;51.020;5.304;2023-08-24T15:20:54;23.10;67.40
19214;DHT22;9741;51.020;5.304;2023-08-24T15:23:25;23.20;67.40
19214;DHT22;9741;51.020;5.304;2023-08-24T15:25:57;23.40;67.40
19214;DHT22;9741;51.020;5.304;2023-08-24T15:28:37;23.50;67.20
19214;DHT22;9741;51.020;5.304;2023-08-24T15:31:10;23.60;67.00
19214;DHT22;9741;51.020;5.304;2023-08-24T15:33:48;23.70;66.80
19214;DHT22;9741;51.020;5.304;2023-08-24T15:36:16;23.70;66.70
19214;DHT22;9741;51.020;5.304;2023-08-24T15:38:47;23.80;66.70
19214;DHT22;9741;51.020;5.304;2023-08-24T15:41:24;23.80;66.60
19214;DHT22;9741;51.020;5.304;2023-08-24T15:44:01;23.90;66.50
19214;DHT22;9741;51.020;5.304;2023-08-24T15:46:35;24.00;66.40
19214;DHT22;9741;51.020;5.304;2023-08-24T15:49:07;24.00;66.30
19214;DHT22;9741;51.020;5.304;2023-08-24T15:51:36;24.00;66.30
19214;DHT22;9741;51.020;5.304;2023-08-24T15:54:08;24.10;66.20
19214;DHT22;9741;51.020;5.304;2023-08-24T15:56:36;24.20;66.20
19214;DHT22;9741;51.020;5.304;2023-08-24T15:59:09;24.30;66.20
19214;DHT22;9741;51.020;5.304;2023-08-24T16:01:50;24.30;66.10
19214;DHT22;9741;51.020;5.304;2023-08-24T16:04:22;24.40;66.00
19214;DHT22;9741;51.020;5.304;2023-08-24T16:06:54;24.50;65.90
19214;DHT22;9741;51.020;5.304;2023-08-24T16:09:30;24.50;65.70
19214;DHT22;9741;51.020;5.304;2023-08-24T16:12:02;24.50;65.60
19214;DHT22;9741;51.020;5.304;2023-08-24T16:14:33;24.60;65.60
19214;DHT22;9741;51.020;5.304;2023-08-24T16:17:16;24.60;65.50
19214;DHT22;9741;51.020;5.304;2023-08-24T16:19:47;24.70;65.40
19214;DHT22;9741;51.020;5.304;2023-08-24T16:22:17;24.80;65.40